Time,TemperatureF,DewpointF,PressureIn,WindDirection,WindDirectionDegrees,WindSpeedMPH,WindSpeedGustMPH,Humidity,HourlyPrecipIn,Conditions,Clouds,dailyrainin,SoftwareType,DateUTC
2013-07-08 00:02:00,66.0,64.0,30.15,SW,223,3.0,9.0,94,0.00,,,0.62,,2013-07-08 04:02:00,
2013-07-08 00:12:00,66.0,64.0,30.15,SW,216,2.0,7.0,94,0.00,,,0.62,,2013-07-08 04:12:00,
2013-07-08 00:22:00,66.0,64.0,30.15,SW,230,3.0,7.0,94,0.00,,,0.62,,2013-07-08 04:22:00,
2013-07-08 00:33:00,66.0,64.0,30.15,SW,230,3.0,7.0,94,0.00,,,0.62,,2013-07-08 04:33:00,
2013-07-08 00:42:00,66.0,64.0,30.15,SW,230,6.0,11.0,94,0.00,,,0.62,,2013-07-08 04:42:00,
2013-07-08 00:53:00,66.0,64.0,30.16,SW,235,4.0,10.0,94,0.00,,,0.62,,2013-07-08 04:53:00,
2013-07-08 01:01:00,65.0,63.0,30.15,SW,230,2.0,9.0,94,0.00,,,0.62,,2013-07-08 05:01:00,
2013-07-08 01:12:00,65.0,64.0,30.13,WSW,245,6.0,11.0,95,0.00,,,0.62,,2013-07-08 05:12:00,
2013-07-08 01:22:00,65.0,64.0,30.12,WSW,244,7.0,11.0,95,0.00,,,0.62,,2013-07-08 05:22:00,
2013-07-08 01:33:00,65.0,64.0,30.12,WSW,244,7.0,11.0,95,0.00,,,0.62,,2013-07-08 05:33:00,
2013-07-08 01:43:00,65.0,64.0,30.12,WSW,244,7.0,11.0,95,0.00,,,0.62,,2013-07-08 05:43:00,
2013-07-08 01:53:00,65.0,64.0,30.12,WSW,244,7.0,11.0,95,0.00,,,0.62,,2013-07-08 05:53:00,
2013-07-08 02:01:00,65.0,64.0,30.12,WSW,244,7.0,11.0,95,0.00,,,0.62,,2013-07-08 06:01:00,
2013-07-08 02:12:00,64.0,63.0,30.12,WSW,240,4.0,7.0,96,0.00,,,0.62,,2013-07-08 06:12:00,
2013-07-08 02:22:00,64.0,63.0,30.12,WSW,240,4.0,7.0,96,0.00,,,0.62,,2013-07-08 06:22:00,
2013-07-08 02:34:00,65.0,64.0,30.12,SW,230,3.0,8.0,96,0.00,,,0.62,,2013-07-08 06:34:00,
2013-07-08 02:43:00,65.0,64.0,30.12,SW,230,3.0,8.0,96,0.00,,,0.62,,2013-07-08 06:43:00,
2013-07-08 02:53:00,65.0,64.0,30.13,WSW,245,3.0,9.0,96,0.00,,,0.62,,2013-07-08 06:53:00,
2013-07-08 03:02:00,65.0,64.0,30.13,SW,232,4.0,8.0,96,0.00,,,0.62,,2013-07-08 07:02:00,
2013-07-08 03:12:00,65.0,64.0,30.13,SW,226,2.0,5.0,96,0.00,,,0.62,,2013-07-08 07:12:00,
2013-07-08 03:22:00,65.0,64.0,30.13,SW,235,2.0,6.0,96,0.00,,,0.62,,2013-07-08 07:22:00,
2013-07-08 03:34:00,65.0,64.0,30.13,SW,235,2.0,6.0,96,0.00,,,0.62,,2013-07-08 07:34:00,
2013-07-08 03:44:00,65.0,64.0,30.13,WSW,239,3.0,7.0,96,0.00,,,0.62,,2013-07-08 07:44:00,
2013-07-08 03:53:00,65.0,64.0,30.12,WSW,244,3.0,7.0,96,0.00,,,0.62,,2013-07-08 07:53:00,
2013-07-08 04:02:00,65.0,64.0,30.12,WSW,237,2.0,8.0,96,0.00,,,0.62,,2013-07-08 08:02:00,
2013-07-08 04:22:00,65.0,64.0,30.12,WSW,237,5.0,12.0,95,0.00,,,0.62,,2013-07-08 08:22:00,
2013-07-08 04:33:00,65.0,64.0,30.12,WSW,237,5.0,12.0,95,0.00,,,0.62,,2013-07-08 08:33:00,
2013-07-08 04:42:00,65.0,64.0,30.12,WSW,244,3.0,9.0,96,0.00,,,0.62,,2013-07-08 08:42:00,
2013-07-08 04:53:00,65.0,64.0,30.12,WSW,243,5.0,9.0,95,0.00,,,0.62,,2013-07-08 08:53:00,
2013-07-08 05:02:00,65.0,64.0,30.12,WSW,253,3.0,6.0,96,0.00,,,0.62,,2013-07-08 09:02:00,
2013-07-08 05:11:00,65.0,64.0,30.12,WSW,253,3.0,6.0,96,0.00,,,0.62,,2013-07-08 09:11:00,
2013-07-08 05:22:00,64.0,63.0,30.13,SW,231,3.0,7.0,96,0.00,,,0.62,,2013-07-08 09:22:00,
2013-07-08 05:34:00,64.0,63.0,30.13,SW,222,2.0,5.0,96,0.00,,,0.62,,2013-07-08 09:34:00,
2013-07-08 05:43:00,64.0,63.0,30.13,WSW,237,2.0,6.0,96,0.00,,,0.62,,2013-07-08 09:43:00,
2013-07-08 05:53:00,64.0,63.0,30.13,SW,234,1.0,4.0,96,0.00,,,0.62,,2013-07-08 09:53:00,
2013-07-08 06:02:00,64.0,63.0,30.13,SSW,201,1.0,6.0,96,0.00,,,0.62,,2013-07-08 10:02:00,
2013-07-08 06:11:00,64.0,63.0,30.13,SW,230,2.0,7.0,95,0.00,,,0.62,,2013-07-08 10:11:00,
2013-07-08 06:22:00,64.0,63.0,30.13,SSW,205,2.0,4.0,95,0.00,,,0.62,,2013-07-08 10:22:00,
2013-07-08 06:34:00,64.0,63.0,30.13,North,0,0.0,4.0,95,0.00,,,0.62,,2013-07-08 10:34:00,
2013-07-08 06:53:00,65.0,64.0,30.13,North,0,0.0,2.0,96,0.00,,,0.62,,2013-07-08 10:53:00,
2013-07-08 07:02:00,65.0,64.0,30.14,North,0,0.0,3.0,95,0.00,,,0.62,,2013-07-08 11:02:00,
2013-07-08 07:11:00,65.0,64.0,30.14,North,0,0.0,2.0,95,0.00,,,0.62,,2013-07-08 11:11:00,
2013-07-08 07:33:00,65.0,63.0,30.14,SW,233,1.0,6.0,93,0.00,,,0.62,,2013-07-08 11:33:00,
2013-07-08 07:43:00,65.0,63.0,30.14,SW,231,2.0,8.0,92,0.00,,,0.62,,2013-07-08 11:43:00,
2013-07-08 07:53:00,65.0,62.0,30.15,SW,236,3.0,9.0,90,0.00,,,0.62,,2013-07-08 11:53:00,
2013-07-08 08:02:00,65.0,62.0,30.15,WSW,243,4.0,8.0,91,0.00,,,0.62,,2013-07-08 12:02:00,
2013-07-08 08:12:00,65.0,62.0,30.15,WSW,240,6.0,10.0,91,0.00,,,0.62,,2013-07-08 12:12:00,
2013-07-08 08:22:00,65.0,63.0,30.16,West,266,4.0,10.0,92,0.00,,,0.62,,2013-07-08 12:22:00,
2013-07-08 08:43:00,65.0,62.0,30.16,SW,229,2.0,7.0,91,0.00,,,0.62,,2013-07-08 12:43:00,
2013-07-08 08:53:00,65.0,62.0,30.17,SW,227,3.0,11.0,90,0.00,,,0.62,,2013-07-08 12:53:00,
2013-07-08 09:02:00,65.0,62.0,30.17,SW,227,3.0,11.0,90,0.00,,,0.62,,2013-07-08 13:02:00,
2013-07-08 09:11:00,65.0,62.0,30.17,SW,227,3.0,11.0,90,0.00,,,0.62,,2013-07-08 13:11:00,
2013-07-08 09:43:00,65.0,61.0,30.18,WSW,237,6.0,14.0,86,0.00,,,0.62,,2013-07-08 13:43:00,
2013-07-08 09:53:00,65.0,60.0,30.18,WSW,238,7.0,11.0,85,0.00,,,0.62,,2013-07-08 13:53:00,
2013-07-08 10:23:00,65.0,60.0,30.18,WSW,257,5.0,13.0,84,0.00,,,0.62,,2013-07-08 14:23:00,
2013-07-08 10:34:00,65.0,60.0,30.18,SW,233,4.0,11.0,85,0.00,,,0.62,,2013-07-08 14:34:00,
2013-07-08 10:43:00,66.0,61.0,30.17,West,264,3.0,8.0,85,0.00,,,0.62,,2013-07-08 14:43:00,
2013-07-08 10:53:00,67.0,62.0,30.17,SW,233,4.0,8.0,84,0.00,,,0.62,,2013-07-08 14:53:00,
2013-07-08 11:11:00,69.0,60.0,30.18,West,269,6.0,15.0,74,0.00,,,0.62,,2013-07-08 15:11:00,
2013-07-08 11:53:00,71.0,62.0,30.17,WSW,250,8.0,15.0,74,0.00,,,0.62,,2013-07-08 15:53:00,
2013-07-08 12:01:00,71.0,62.0,30.18,WSW,249,8.0,12.0,73,0.00,,,0.62,,2013-07-08 16:01:00,
2013-07-08 12:11:00,71.0,62.0,30.18,WSW,247,8.0,14.0,74,0.00,,,0.62,,2013-07-08 16:11:00,
2013-07-08 12:22:00,71.0,62.0,30.17,West,260,7.0,14.0,74,0.00,,,0.62,,2013-07-08 16:22:00,
2013-07-08 12:43:00,73.0,62.0,30.16,West,261,6.0,14.0,68,0.00,,,0.62,,2013-07-08 16:43:00,
2013-07-08 12:55:00,73.0,62.0,30.17,West,273,5.0,14.0,68,0.00,,,0.62,,2013-07-08 16:55:00,
2013-07-08 13:46:00,74.0,62.0,30.17,WSW,251,9.0,13.0,66,0.00,,,0.62,,2013-07-08 17:46:00,
2013-07-08 13:54:00,74.0,62.0,30.17,WSW,251,9.0,13.0,66,0.00,,,0.62,,2013-07-08 17:54:00,
2013-07-08 14:45:00,75.0,63.0,30.15,SW,227,4.0,12.0,67,0.00,,,0.05,,2013-07-08 18:45:00,
2013-07-08 15:01:00,74.0,62.0,30.15,WSW,243,9.0,15.0,67,0.00,,,0.05,,2013-07-08 19:01:00,
2013-07-08 15:13:00,74.0,64.0,30.15,WSW,247,6.0,12.0,70,0.00,,,0.03,,2013-07-08 19:13:00,
2013-07-08 15:34:00,75.0,63.0,30.15,WSW,240,6.0,13.0,66,0.00,,,0.02,,2013-07-08 19:34:00,
2013-07-08 15:40:00,75.0,63.0,30.15,WSW,240,6.0,13.0,66,0.00,,,0.02,,2013-07-08 19:40:00,
2013-07-08 15:53:00,76.0,63.0,30.14,WSW,253,7.0,13.0,64,0.00,,,0.01,,2013-07-08 19:53:00,
2013-07-08 16:00:00,76.0,62.0,30.13,WSW,245,5.0,15.0,62,0.00,,,0.00,,2013-07-08 20:00:00,
2013-07-08 16:16:00,76.0,62.0,30.13,SW,222,3.0,13.0,62,0.00,,,0.00,,2013-07-08 20:16:00,
2013-07-08 16:23:00,76.0,62.0,30.13,WSW,243,7.0,11.0,63,0.00,,,0.00,,2013-07-08 20:23:00,
2013-07-08 17:01:00,74.0,64.0,30.13,WSW,245,7.0,11.0,70,0.00,,,0.00,,2013-07-08 21:01:00,
2013-07-08 17:17:00,74.0,64.0,30.13,WSW,245,7.0,11.0,70,0.00,,,0.00,,2013-07-08 21:17:00,
2013-07-08 17:35:00,74.0,64.0,30.13,SW,229,5.0,10.0,71,0.00,,,0.00,,2013-07-08 21:35:00,
2013-07-08 18:18:00,75.0,64.0,30.12,SW,215,3.0,8.0,69,0.00,,,0.00,,2013-07-08 22:18:00,
2013-07-08 18:45:00,75.0,64.0,30.12,SW,233,8.0,13.0,68,0.00,,,0.00,,2013-07-08 22:45:00,
2013-07-08 18:55:00,75.0,64.0,30.11,WSW,244,7.0,15.0,69,0.00,,,0.00,,2013-07-08 22:55:00,
2013-07-08 19:01:00,75.0,65.0,30.11,SW,234,5.0,15.0,70,0.00,,,0.00,,2013-07-08 23:01:00,
2013-07-08 19:17:00,76.0,65.0,30.11,SW,222,4.0,10.0,69,0.00,,,0.00,,2013-07-08 23:17:00,
2013-07-08 19:33:00,75.0,64.0,30.11,WSW,241,5.0,12.0,68,0.00,,,0.00,,2013-07-08 23:33:00,
2013-07-08 19:46:00,75.0,65.0,30.14,SW,223,4.0,9.0,70,0.00,,,0.00,,2013-07-08 23:46:00,
2013-07-08 20:01:00,74.0,65.0,30.14,WSW,241,3.0,7.0,74,0.00,,,0.00,,2013-07-09 00:01:00,
2013-07-08 20:34:00,73.0,65.0,30.15,WSW,243,2.0,7.0,76,0.00,,,0.00,,2013-07-09 00:34:00,
2013-07-08 20:42:00,72.0,65.0,30.16,WSW,238,1.0,5.0,78,0.00,,,0.00,,2013-07-09 00:42:00,
2013-07-08 21:16:00,71.0,65.0,30.16,WSW,239,1.0,4.0,82,0.00,,,0.00,,2013-07-09 01:16:00,
2013-07-08 21:24:00,71.0,65.0,30.16,WSW,239,1.0,4.0,82,0.00,,,0.00,,2013-07-09 01:24:00,
2013-07-08 21:36:00,70.0,65.0,30.16,SW,219,1.0,3.0,83,0.00,,,0.00,,2013-07-09 01:36:00,
2013-07-08 21:56:00,70.0,65.0,30.16,North,0,0.0,3.0,83,0.00,,,0.00,,2013-07-09 01:56:00,
2013-07-08 22:19:00,70.0,65.0,30.16,North,0,0.0,3.0,84,0.00,,,0.00,,2013-07-09 02:19:00,
2013-07-08 22:32:00,69.0,65.0,30.17,North,0,0.0,0.0,86,0.00,,,0.00,,2013-07-09 02:32:00,
2013-07-08 22:56:00,69.0,65.0,30.17,North,0,0.0,0.0,86,0.00,,,0.00,,2013-07-09 02:56:00,
2013-07-08 23:02:00,69.0,65.0,30.17,North,0,0.0,0.0,86,0.00,,,0.00,,2013-07-09 03:02:00,
2013-07-08 23:25:00,69.0,65.0,30.18,SW,222,2.0,5.0,88,0.00,,,0.00,,2013-07-09 03:25:00,
2013-07-08 23:35:00,69.0,65.0,30.18,WSW,245,3.0,6.0,88,0.00,,,0.00,,2013-07-09 03:35:00,
2013-07-08 23:54:00,68.0,65.0,30.17,WSW,237,2.0,7.0,89,0.00,,,0.00,,2013-07-09 03:54:00,